createdAt,value
2023-01-09T00:02:00.641Z,81.32
2023-01-09T00:04:27.215Z,81.06
2023-01-09T00:06:54.329Z,80.14
2023-01-09T00:09:21.610Z,80.37
2023-01-09T00:11:48.505Z,80.39
2023-01-09T00:14:18.464Z,81.50
2023-01-09T00:16:45.177Z,80.71
2023-01-09T00:19:11.854Z,80.96
2023-01-09T00:21:38.497Z,81.15
2023-01-09T00:24:05.383Z,81.05
2023-01-09T00:26:32.286Z,80.76
2023-01-09T00:29:01.275Z,80.94
2023-01-09T00:31:27.843Z,82.69
2023-01-09T00:34:02.579Z,81.49
2023-01-09T00:36:29.263Z,81.78
2023-01-09T00:38:56.017Z,81.88
2023-01-09T00:41:27.771Z,80.92
2023-01-09T00:43:57.357Z,81.45
2023-01-09T00:46:27.247Z,80.47
2023-01-09T00:48:53.995Z,79.45
2023-01-09T00:51:20.660Z,80.08
2023-01-09T00:53:48.703Z,79.19
2023-01-09T00:56:16.729Z,78.96
2023-01-09T00:58:43.356Z,79.45
2023-01-09T01:01:10.009Z,80.52
2023-01-09T01:03:36.631Z,82.36
2023-01-09T01:06:21.787Z,80.96
2023-01-09T01:08:48.402Z,82.18
2023-01-09T01:11:15.032Z,83.04
2023-01-09T01:13:42.035Z,82.31
2023-01-09T01:16:09.428Z,81.51
2023-01-09T01:18:36.405Z,82.06
2023-01-09T01:21:13.247Z,80.49
2023-01-09T01:23:39.906Z,80.54
2023-01-09T01:26:07.500Z,80.50
2023-01-09T01:28:34.171Z,80.17
2023-01-09T01:31:01.007Z,80.18
2023-01-09T01:33:27.751Z,80.73
2023-01-09T01:36:04.823Z,79.81
2023-01-09T01:38:31.855Z,79.76
2023-01-09T01:40:58.469Z,80.03
2023-01-09T01:43:25.070Z,80.92
2023-01-09T01:45:52.172Z,80.70
2023-01-09T01:48:26.953Z,80.02
2023-01-09T01:50:59.416Z,80.01
2023-01-09T01:53:32.813Z,79.40
2023-01-09T01:55:59.363Z,79.83
2023-01-09T01:58:26.684Z,79.18
2023-01-09T02:00:53.748Z,79.43
2023-01-09T02:03:22.299Z,80.29
2023-01-09T02:05:49.093Z,78.99
2023-01-09T02:08:15.709Z,79.30
2023-01-09T02:10:42.601Z,78.54
2023-01-09T02:13:09.784Z,78.51
2023-01-09T02:15:48.580Z,77.79
2023-01-09T02:18:26.856Z,78.24
2023-01-09T02:20:56.598Z,79.73
2023-01-09T02:23:35.272Z,79.30
2023-01-09T02:26:07.753Z,79.16
2023-01-09T02:28:43.171Z,80.17
2023-01-09T02:31:19.441Z,78.81
2023-01-09T02:33:59.018Z,79.63
2023-01-09T02:36:31.687Z,79.45
2023-01-09T02:39:04.023Z,78.33
2023-01-09T02:41:39.787Z,79.98
2023-01-09T02:44:23.213Z,78.16
2023-01-09T02:47:03.617Z,77.91
2023-01-09T02:49:31.171Z,77.46
2023-01-09T02:52:04.343Z,78.02
2023-01-09T02:54:51.150Z,78.47
2023-01-09T02:57:30.162Z,80.92
2023-01-09T03:00:09.864Z,81.26
2023-01-09T03:02:36.504Z,80.67
2023-01-09T03:05:08.984Z,80.28
2023-01-09T03:07:42.980Z,78.89
2023-01-09T03:10:15.540Z,79.20
2023-01-09T03:12:43.097Z,79.98
2023-01-09T03:15:12.541Z,80.06
2023-01-09T03:17:41.490Z,78.89
2023-01-09T03:20:10.376Z,78.75
2023-01-09T03:22:38.818Z,80.50
2023-01-09T03:25:05.822Z,80.05
2023-01-09T03:27:32.428Z,80.02
2023-01-09T03:29:58.922Z,80.01
2023-01-09T03:32:27.791Z,81.14
2023-01-09T03:34:54.399Z,80.67
2023-01-09T03:37:20.917Z,81.89
2023-01-09T03:39:47.424Z,81.57
2023-01-09T03:42:13.975Z,82.26
2023-01-09T03:44:40.453Z,82.71
2023-01-09T03:47:07.019Z,82.53
2023-01-09T03:49:33.583Z,83.01
2023-01-09T03:52:00.130Z,83.91
2023-01-09T03:54:26.623Z,82.07
2023-01-09T03:56:53.191Z,84.64
2023-01-09T03:59:19.705Z,82.66
2023-01-09T04:01:46.326Z,82.92
2023-01-09T04:04:12.974Z,84.00
2023-01-09T04:06:39.516Z,85.53
2023-01-09T04:09:06.008Z,85.18
2023-01-09T04:13:59.144Z,84.03
2023-01-09T04:16:25.780Z,85.29
2023-01-09T04:18:52.335Z,86.08
2023-01-09T04:21:18.895Z,86.72
2023-01-09T04:23:45.653Z,87.32
2023-01-09T04:26:12.222Z,84.79
2023-01-09T04:28:38.727Z,85.96
2023-01-09T04:31:05.454Z,85.54
2023-01-09T04:33:31.969Z,85.25
2023-01-09T04:35:58.949Z,85.01
2023-01-09T04:38:27.104Z,86.77
2023-01-09T04:40:53.695Z,85.86
2023-01-09T04:43:20.254Z,85.09
2023-01-09T04:45:46.821Z,85.24
2023-01-09T04:48:13.462Z,85.54
2023-01-09T04:50:39.978Z,84.18
2023-01-09T04:53:06.980Z,84.98
2023-01-09T04:55:33.851Z,85.09
2023-01-09T04:58:00.360Z,84.72
2023-01-09T05:00:26.992Z,83.01
2023-01-09T05:02:53.538Z,84.10
2023-01-09T05:05:20.259Z,84.44
2023-01-09T05:07:46.845Z,83.60
2023-01-09T05:10:13.448Z,84.95
2023-01-09T05:12:40.176Z,84.77
2023-01-09T05:15:07.683Z,85.28
2023-01-09T05:17:34.280Z,84.98
2023-01-09T05:20:03.866Z,84.12
2023-01-09T05:22:30.435Z,83.68
2023-01-09T05:24:57.966Z,84.27
2023-01-09T05:27:27.311Z,85.98
2023-01-09T05:29:53.833Z,84.44
2023-01-09T05:32:20.357Z,83.20
2023-01-09T05:34:46.895Z,83.80
2023-01-09T05:37:13.429Z,84.76
2023-01-09T05:39:40.067Z,85.30
2023-01-09T05:42:06.592Z,84.41
2023-01-09T05:44:33.115Z,84.56
2023-01-09T05:47:01.920Z,83.24
2023-01-09T05:49:29.201Z,81.72
2023-01-09T05:51:55.760Z,82.23
2023-01-09T05:54:22.356Z,82.49
2023-01-09T05:56:48.870Z,82.92
2023-01-09T05:59:15.433Z,82.62
2023-01-09T06:01:41.955Z,82.25
2023-01-09T06:04:08.563Z,82.11
2023-01-09T06:06:35.036Z,84.10
2023-01-09T06:09:03.478Z,83.79
2023-01-09T06:11:29.955Z,85.86
2023-01-09T06:13:56.501Z,84.34
2023-01-09T06:16:23.089Z,85.72
2023-01-09T06:18:50.457Z,84.42
2023-01-09T06:21:16.944Z,83.61
2023-01-09T06:23:43.777Z,84.50
2023-01-09T06:26:10.273Z,84.58
2023-01-09T06:28:36.834Z,84.88
2023-01-09T06:31:03.440Z,84.33
2023-01-09T06:33:30.074Z,84.57
2023-01-09T06:35:56.551Z,83.83
2023-01-09T06:38:23.269Z,84.50
2023-01-09T06:40:50.830Z,84.83
2023-01-09T06:43:17.359Z,84.55
2023-01-09T06:45:43.897Z,84.67
2023-01-09T06:48:10.729Z,84.90
2023-01-09T06:50:37.224Z,84.53
2023-01-09T06:53:03.775Z,85.01
2023-01-09T06:55:30.251Z,84.18
2023-01-09T06:57:56.852Z,84.27
2023-01-09T07:00:23.563Z,83.69
2023-01-09T07:02:50.132Z,84.35
2023-01-09T07:05:16.785Z,84.71
2023-01-09T07:07:43.431Z,84.88
2023-01-09T07:10:10.555Z,84.62
2023-01-09T07:12:37.153Z,84.35
2023-01-09T07:15:03.839Z,84.52
2023-01-09T07:17:30.415Z,85.25
2023-01-09T07:19:56.897Z,85.38
2023-01-09T07:22:23.545Z,84.27
2023-01-09T07:24:50.052Z,85.73
2023-01-09T07:27:16.573Z,85.86
2023-01-09T07:29:43.140Z,85.79
2023-01-09T07:32:09.796Z,85.63
2023-01-09T07:34:38.143Z,85.67
2023-01-09T07:37:04.808Z,85.27
2023-01-09T07:39:31.308Z,85.91
2023-01-09T07:41:57.834Z,85.73
2023-01-09T07:44:25.689Z,85.64
2023-01-09T07:46:52.234Z,84.83
2023-01-09T07:49:18.759Z,85.27
2023-01-09T07:51:45.854Z,84.31
2023-01-09T07:54:15.039Z,83.86
2023-01-09T07:56:41.603Z,83.99
2023-01-09T07:59:08.139Z,84.50
2023-01-09T08:01:34.892Z,83.44
2023-01-09T08:04:01.483Z,83.28
2023-01-09T08:06:28.139Z,82.91
2023-01-09T08:08:54.643Z,83.42
2023-01-09T08:11:21.589Z,84.11
2023-01-09T08:13:48.136Z,83.17
2023-01-09T08:16:14.923Z,82.87
2023-01-09T08:18:41.521Z,83.22
2023-01-09T08:21:08.152Z,82.77
2023-01-09T08:23:34.896Z,81.83
2023-01-09T08:26:01.443Z,82.81
2023-01-09T08:28:28.063Z,81.02
2023-01-09T08:30:54.602Z,81.18
2023-01-09T08:33:21.215Z,81.63
2023-01-09T08:35:48.084Z,81.29
2023-01-09T08:38:14.717Z,81.46
2023-01-09T08:40:41.284Z,81.66
2023-01-09T08:43:27.069Z,81.65
2023-01-09T08:46:12.197Z,81.40
2023-01-09T08:48:38.742Z,81.42
2023-01-09T08:51:05.293Z,80.86
2023-01-09T08:53:31.847Z,80.59
2023-01-09T08:55:59.200Z,79.99
2023-01-09T08:58:25.961Z,80.05
2023-01-09T09:00:52.471Z,79.82
2023-01-09T09:03:19.188Z,79.84
2023-01-09T09:05:46.896Z,78.80
2023-01-09T09:08:13.864Z,78.84
2023-01-09T09:10:40.499Z,78.88
2023-01-09T09:13:07.114Z,78.54
2023-01-09T09:15:34.516Z,78.31
2023-01-09T09:18:03.283Z,78.58
2023-01-09T09:20:31.738Z,78.77
2023-01-09T09:22:58.299Z,78.04
2023-01-09T09:25:25.121Z,77.84
2023-01-09T09:27:52.206Z,77.81
2023-01-09T09:30:19.672Z,77.81
2023-01-09T09:32:46.601Z,77.14
2023-01-09T09:35:13.199Z,77.00
2023-01-09T09:37:40.884Z,76.35
2023-01-09T09:40:17.960Z,76.07
2023-01-09T09:43:06.973Z,75.99
2023-01-09T09:45:33.491Z,75.07
2023-01-09T09:48:15.082Z,74.45
2023-01-09T09:50:41.667Z,74.79
2023-01-09T09:53:23.435Z,74.65
2023-01-09T09:55:50.936Z,74.36
2023-01-09T09:58:21.774Z,74.02
2023-01-09T10:00:50.283Z,72.77
2023-01-09T10:03:33.399Z,72.95
2023-01-09T10:06:03.171Z,71.73
2023-01-09T10:08:44.817Z,71.04
2023-01-09T10:11:22.152Z,70.83
2023-01-09T10:14:16.013Z,71.09
2023-01-09T10:16:58.470Z,69.52
2023-01-09T10:19:33.816Z,68.49
2023-01-09T10:22:06.264Z,67.96
2023-01-09T10:24:37.543Z,67.49
2023-01-09T10:27:12.379Z,65.78
2023-01-09T10:29:54.908Z,64.41
2023-01-09T10:32:36.531Z,61.61
2023-01-09T10:35:03.059Z,58.38
2023-01-09T10:37:31.254Z,53.82
2023-01-09T10:40:02.868Z,53.09
2023-01-09T10:42:34.563Z,49.97
2023-01-09T10:45:03.892Z,47.20
2023-01-09T10:47:34.453Z,46.90
2023-01-09T10:50:02.510Z,45.90
2023-01-09T10:52:33.021Z,43.78
2023-01-09T10:55:16.985Z,41.86
2023-01-09T10:57:44.983Z,40.71
2023-01-09T11:00:16.090Z,43.25
2023-01-09T11:02:42.755Z,45.32
2023-01-09T11:05:13.447Z,43.34
2023-01-09T11:07:42.222Z,41.51
2023-01-09T11:10:11.852Z,42.59
2023-01-09T11:12:39.065Z,42.05
2023-01-09T11:15:28.985Z,40.45
2023-01-09T11:17:58.743Z,41.69
2023-01-09T11:20:27.461Z,44.78
2023-01-09T11:22:55.457Z,48.13
2023-01-09T11:25:23.161Z,51.40
2023-01-09T11:28:01.808Z,55.67
2023-01-09T11:30:29.172Z,57.83
2023-01-09T11:32:56.286Z,58.90
2023-01-09T11:35:24.559Z,58.72
2023-01-09T11:37:58.757Z,53.84
2023-01-09T11:40:25.489Z,50.47
2023-01-09T11:43:06.123Z,50.10
2023-01-09T11:45:34.501Z,48.32
2023-01-09T11:48:01.699Z,44.90
2023-01-09T11:50:29.945Z,42.07
2023-01-09T11:53:13.731Z,40.75
2023-01-09T11:55:42.815Z,43.26
2023-01-09T11:58:14.717Z,43.42
2023-01-09T12:00:49.618Z,42.30
2023-01-09T12:03:25.394Z,42.64
2023-01-09T12:05:51.980Z,41.92
2023-01-09T12:08:21.555Z,42.18
2023-01-09T12:11:01.233Z,44.12
2023-01-09T12:13:33.911Z,45.75
2023-01-09T12:16:06.356Z,49.87
2023-01-09T12:18:32.927Z,52.63
2023-01-09T12:21:02.461Z,53.49
2023-01-09T12:23:44.074Z,55.04
2023-01-09T12:26:13.358Z,55.65
2023-01-09T12:28:42.661Z,55.66
2023-01-09T12:31:18.213Z,57.07
2023-01-09T12:33:44.806Z,58.74
2023-01-09T12:36:11.284Z,59.60
2023-01-09T12:38:37.823Z,59.41
2023-01-09T12:41:23.144Z,60.43
2023-01-09T12:43:57.834Z,59.54
2023-01-09T12:46:26.632Z,59.92
2023-01-09T12:49:12.001Z,59.83
2023-01-09T12:51:38.598Z,60.37
2023-01-09T12:54:10.299Z,60.69
2023-01-09T12:56:49.782Z,59.48
2023-01-09T12:59:19.292Z,59.69
2023-01-09T13:01:47.864Z,58.91
2023-01-09T13:04:20.345Z,59.39
2023-01-09T13:06:56.635Z,59.83
2023-01-09T13:09:41.906Z,60.06
2023-01-09T13:12:16.079Z,59.91
2023-01-09T13:14:45.546Z,60.62
2023-01-09T13:17:16.300Z,60.21
2023-01-09T13:19:42.914Z,61.29
2023-01-09T13:22:14.383Z,60.22
2023-01-09T13:24:53.075Z,61.32
2023-01-09T13:27:20.973Z,60.92
2023-01-09T13:29:50.443Z,59.88
2023-01-09T13:32:20.045Z,60.10
2023-01-09T13:34:47.901Z,60.35
2023-01-09T13:37:24.051Z,59.88
2023-01-09T13:39:58.182Z,60.72
2023-01-09T13:42:39.801Z,60.13
2023-01-09T13:45:33.316Z,57.44
2023-01-09T13:48:19.184Z,55.98
2023-01-09T13:50:47.376Z,54.05
2023-01-09T13:53:19.908Z,53.24
2023-01-09T13:55:55.448Z,52.19
2023-01-09T13:58:22.772Z,53.74
2023-01-09T14:00:50.127Z,54.64
2023-01-09T14:03:31.494Z,54.72
2023-01-09T14:05:58.016Z,54.99
2023-01-09T14:08:26.871Z,54.57
2023-01-09T14:10:57.764Z,54.32
2023-01-09T14:13:26.363Z,52.94
2023-01-09T14:16:01.063Z,54.62
2023-01-09T14:18:32.864Z,56.33
2023-01-09T14:21:00.739Z,56.72
2023-01-09T14:23:45.931Z,56.74
2023-01-09T14:26:19.543Z,56.74
2023-01-09T14:28:46.646Z,57.27
2023-01-09T14:31:33.534Z,58.61
2023-01-09T14:34:30.151Z,57.65
2023-01-09T14:37:00.949Z,59.15
2023-01-09T14:39:29.909Z,58.64
2023-01-09T14:42:06.306Z,58.73
2023-01-09T14:44:47.114Z,58.54
2023-01-09T14:47:36.859Z,59.10
2023-01-09T14:50:12.567Z,59.24
2023-01-09T14:52:45.270Z,60.64
2023-01-09T14:55:23.102Z,60.90
2023-01-09T14:57:54.705Z,61.23
2023-01-09T15:00:22.271Z,61.32
2023-01-09T15:02:50.527Z,62.51
2023-01-09T15:05:22.445Z,62.07
2023-01-09T15:07:52.069Z,62.06
2023-01-09T15:10:38.952Z,61.16
2023-01-09T15:13:07.539Z,61.17
2023-01-09T15:15:35.066Z,61.58
2023-01-09T15:18:06.358Z,61.73
2023-01-09T15:20:33.507Z,61.53
2023-01-09T15:23:01.057Z,61.39
2023-01-09T15:25:44.643Z,61.64
2023-01-09T15:28:26.981Z,61.62
2023-01-09T15:30:59.793Z,61.80
2023-01-09T15:33:27.074Z,61.52
2023-01-09T15:36:00.050Z,61.79
2023-01-09T15:38:27.507Z,62.01
2023-01-09T15:40:55.913Z,61.94
2023-01-09T15:43:22.659Z,62.04
2023-01-09T15:45:49.458Z,62.26
2023-01-09T15:48:16.059Z,61.74
2023-01-09T15:50:42.713Z,62.03
2023-01-09T15:53:16.389Z,62.09
2023-01-09T15:55:43.330Z,61.82
2023-01-09T15:58:29.636Z,61.59
2023-01-09T16:00:58.641Z,61.40
2023-01-09T16:03:25.859Z,60.88
2023-01-09T16:06:02.600Z,61.91
2023-01-09T16:08:31.371Z,61.98
2023-01-09T16:11:02.948Z,61.39
2023-01-09T16:13:30.613Z,60.64
2023-01-09T16:15:58.768Z,60.77
2023-01-09T16:18:29.897Z,61.32
2023-01-09T16:21:04.123Z,61.89
2023-01-09T16:23:32.069Z,61.80
2023-01-09T16:26:12.109Z,62.79
2023-01-09T16:28:41.038Z,61.32
2023-01-09T16:31:18.323Z,61.50
2023-01-09T16:33:50.092Z,61.65
2023-01-09T16:36:21.209Z,63.12
2023-01-09T16:38:47.876Z,64.10
2023-01-09T16:41:34.415Z,64.70
2023-01-09T16:44:01.496Z,66.79
2023-01-09T16:46:28.723Z,68.92
2023-01-09T16:48:55.507Z,69.74
2023-01-09T16:51:22.955Z,69.35
2023-01-09T16:53:50.051Z,69.27
2023-01-09T16:56:19.971Z,69.22
2023-01-09T16:58:46.544Z,69.53
2023-01-09T17:01:15.880Z,70.10
2023-01-09T17:03:43.925Z,70.71
2023-01-09T17:06:24.713Z,70.65
2023-01-09T17:08:51.643Z,70.65
2023-01-09T17:11:25.099Z,70.36
2023-01-09T17:13:51.686Z,69.50
2023-01-09T17:16:18.480Z,69.77
2023-01-09T17:18:45.118Z,68.88
2023-01-09T17:21:32.088Z,70.09
2023-01-09T17:24:34.683Z,70.66
2023-01-09T17:27:20.642Z,69.73
2023-01-09T17:29:47.534Z,69.70
2023-01-09T17:32:18.190Z,70.12
2023-01-09T17:34:44.983Z,70.17
2023-01-09T17:37:15.882Z,70.69
2023-01-09T17:39:42.928Z,71.57
2023-01-09T17:42:10.308Z,72.79
2023-01-09T17:44:36.935Z,72.15
2023-01-09T17:47:03.547Z,72.68
2023-01-09T17:49:30.179Z,72.47
2023-01-09T17:51:56.669Z,73.28
2023-01-09T17:54:23.305Z,74.12
2023-01-09T17:56:51.104Z,76.23
2023-01-09T17:59:18.269Z,76.80
2023-01-09T18:01:45.179Z,77.62
2023-01-09T18:04:11.916Z,77.75
2023-01-09T18:06:38.409Z,78.03
2023-01-09T18:09:05.957Z,77.54
2023-01-09T18:11:32.868Z,77.72
2023-01-09T18:13:59.501Z,77.65
2023-01-09T18:16:27.719Z,78.34
2023-01-09T18:18:57.575Z,77.95
2023-01-09T18:21:24.993Z,77.19
2023-01-09T18:23:51.749Z,77.54
2023-01-09T18:26:21.490Z,77.13
2023-01-09T18:29:06.083Z,76.83
2023-01-09T18:31:33.412Z,77.14
2023-01-09T18:34:02.572Z,77.40
2023-01-09T18:36:30.137Z,77.74
2023-01-09T18:39:00.996Z,78.12
2023-01-09T18:41:28.082Z,78.54
2023-01-09T18:43:55.496Z,78.62
2023-01-09T18:46:25.107Z,79.61
2023-01-09T18:48:55.616Z,79.45
2023-01-09T18:51:22.852Z,79.25
2023-01-09T18:53:49.859Z,79.48
2023-01-09T18:56:16.740Z,78.71
2023-01-09T18:58:43.240Z,79.26
2023-01-09T19:01:09.871Z,78.62
2023-01-09T19:03:36.497Z,78.43
2023-01-09T19:06:03.954Z,78.87
2023-01-09T19:08:34.250Z,78.02
2023-01-09T19:11:01.073Z,77.41
2023-01-09T19:13:31.349Z,78.42
2023-01-09T19:15:58.483Z,78.60
2023-01-09T19:18:25.475Z,78.24
2023-01-09T19:20:52.844Z,78.35
2023-01-09T19:23:20.185Z,78.48
2023-01-09T19:25:47.379Z,78.59
2023-01-09T19:28:14.135Z,78.04
2023-01-09T19:30:40.810Z,78.43
2023-01-09T19:33:07.443Z,78.73
2023-01-09T19:35:34.137Z,78.80
2023-01-09T19:38:00.660Z,78.00
2023-01-09T19:40:27.315Z,79.01
2023-01-09T19:42:54.674Z,78.81
2023-01-09T19:45:21.413Z,78.49
2023-01-09T19:47:49.325Z,78.68
2023-01-09T19:50:17.088Z,78.46
2023-01-09T19:52:44.152Z,79.20
2023-01-09T19:55:13.567Z,78.51
2023-01-09T19:57:40.989Z,78.12
2023-01-09T20:00:07.965Z,78.49
2023-01-09T20:02:39.056Z,78.85
2023-01-09T20:05:05.879Z,78.43
2023-01-09T20:07:32.501Z,78.59
2023-01-09T20:09:59.056Z,78.87
2023-01-09T20:12:25.559Z,79.52
2023-01-09T20:14:52.328Z,80.03
2023-01-09T20:17:19.770Z,79.70
2023-01-09T20:19:46.300Z,80.66
2023-01-09T20:22:13.017Z,80.33
2023-01-09T20:24:39.659Z,80.17
2023-01-09T20:27:06.557Z,80.56
2023-01-09T20:29:33.306Z,80.97
2023-01-09T20:32:01.296Z,81.62
2023-01-09T20:34:28.010Z,81.60
2023-01-09T20:36:54.811Z,81.78
2023-01-09T20:39:21.437Z,81.75
2023-01-09T20:41:48.269Z,81.98
2023-01-09T20:44:15.854Z,81.16
2023-01-09T20:46:44.764Z,81.60
2023-01-09T20:49:12.822Z,81.17
2023-01-09T20:51:43.726Z,81.34
2023-01-09T20:54:10.278Z,81.41
2023-01-09T20:56:36.881Z,81.04
2023-01-09T20:59:04.326Z,81.06
2023-01-09T21:01:30.802Z,81.53
2023-01-09T21:03:57.920Z,82.10
2023-01-09T21:06:25.881Z,82.50
2023-01-09T21:08:53.129Z,82.37
2023-01-09T21:11:21.258Z,81.93
2023-01-09T21:13:47.914Z,82.30
2023-01-09T21:16:15.741Z,82.03
2023-01-09T21:18:43.359Z,81.01
2023-01-09T21:21:13.548Z,81.33
2023-01-09T21:23:44.269Z,80.86
2023-01-09T21:26:11.886Z,81.07
2023-01-09T21:28:46.080Z,80.15
2023-01-09T21:31:13.199Z,80.36
2023-01-09T21:33:40.256Z,80.41
2023-01-09T21:36:07.243Z,80.56
2023-01-09T21:38:33.812Z,80.08
2023-01-09T21:41:20.371Z,79.86
2023-01-09T21:44:05.663Z,79.92
2023-01-09T21:46:50.999Z,79.15
2023-01-09T21:49:18.252Z,79.42
2023-01-09T21:51:44.790Z,78.99
2023-01-09T21:54:11.444Z,78.97
2023-01-09T21:56:38.082Z,78.83
2023-01-09T21:59:04.935Z,78.93
2023-01-09T22:01:31.462Z,78.97
2023-01-09T22:03:58.124Z,78.87
2023-01-09T22:06:25.098Z,80.46
2023-01-09T22:08:51.813Z,80.61
2023-01-09T22:11:18.362Z,81.17
2023-01-09T22:13:48.288Z,80.84
2023-01-09T22:16:14.913Z,80.99
2023-01-09T22:18:41.427Z,82.40
2023-01-09T22:21:08.128Z,82.91
2023-01-09T22:23:34.715Z,81.80
2023-01-09T22:26:06.879Z,81.97
2023-01-09T22:28:33.407Z,82.96
2023-01-09T22:30:59.911Z,83.63
2023-01-09T22:33:26.642Z,82.99
2023-01-09T22:35:53.123Z,83.85
2023-01-09T22:38:19.676Z,84.01
2023-01-09T22:40:46.147Z,83.76
2023-01-09T22:43:16.147Z,83.86
2023-01-09T22:45:43.109Z,83.27
2023-01-09T22:48:09.987Z,84.24
2023-01-09T22:50:36.815Z,84.61
2023-01-09T22:53:03.414Z,85.33
2023-01-09T22:55:29.975Z,84.19
2023-01-09T22:57:56.512Z,84.27
2023-01-09T23:00:23.098Z,84.43
2023-01-09T23:02:49.818Z,85.01
2023-01-09T23:05:16.733Z,84.54
2023-01-09T23:07:43.262Z,84.46
2023-01-09T23:10:10.120Z,83.88
2023-01-09T23:12:36.602Z,82.76
2023-01-09T23:15:03.408Z,83.97
2023-01-09T23:17:29.926Z,82.85
2023-01-09T23:19:56.457Z,82.82
2023-01-09T23:22:22.993Z,82.85
2023-01-09T23:24:49.554Z,83.71
2023-01-09T23:27:16.074Z,83.59
2023-01-09T23:29:42.649Z,83.28
2023-01-09T23:32:09.121Z,83.45
2023-01-09T23:34:35.722Z,83.63
2023-01-09T23:37:04.072Z,83.08
2023-01-09T23:39:30.618Z,82.39
2023-01-09T23:42:15.738Z,84.04
2023-01-09T23:44:42.280Z,83.48
2023-01-09T23:47:08.861Z,84.53
2023-01-09T23:49:35.424Z,84.21
2023-01-09T23:52:04.945Z,83.60
2023-01-09T23:54:31.483Z,83.52
2023-01-09T23:56:58.140Z,83.62
2023-01-09T23:59:24.740Z,82.93
